createdAt,value
2022-10-13T00:02:32.649Z,101323.97
2022-10-13T00:08:56.861Z,101327.56
2022-10-13T00:15:21.165Z,101323.68
2022-10-13T00:21:48.342Z,101321.48
2022-10-13T00:28:12.479Z,101316.88
2022-10-13T00:34:36.760Z,101316.17
2022-10-13T00:41:01.086Z,101313.19
2022-10-13T00:47:25.380Z,101314.97
2022-10-13T00:53:49.693Z,101314.05
2022-10-13T01:00:14.002Z,101305.17
2022-10-13T01:06:38.365Z,101300.33
2022-10-13T01:13:08.500Z,101296.91
2022-10-13T01:19:38.731Z,101292.08
2022-10-13T01:26:12.050Z,101288.30
2022-10-13T01:32:39.118Z,101281.37
2022-10-13T01:39:06.002Z,101273.38
2022-10-13T01:45:33.234Z,101277.07
2022-10-13T01:51:57.440Z,101275.13
2022-10-13T01:58:30.526Z,101274.91
2022-10-13T02:05:06.825Z,101273.66
2022-10-13T02:11:39.808Z,101270.82
2022-10-13T02:18:04.118Z,101270.08
2022-10-13T02:24:28.501Z,101262.50
2022-10-13T02:31:01.572Z,101257.73
2022-10-13T02:37:25.838Z,101261.98
2022-10-13T02:43:50.129Z,101259.73
2022-10-13T02:50:14.157Z,101251.07
2022-10-13T02:56:38.385Z,101250.06
2022-10-13T03:03:03.289Z,101248.59
2022-10-13T03:09:27.614Z,101249.58
2022-10-13T03:15:52.113Z,101250.02
2022-10-13T03:22:16.506Z,101251.31
2022-10-13T03:28:40.972Z,101248.09
2022-10-13T03:35:05.226Z,101250.98
2022-10-13T03:41:29.570Z,101241.02
2022-10-13T03:47:54.002Z,101237.58
2022-10-13T03:54:18.287Z,101234.34
2022-10-13T04:00:42.593Z,101228.44
2022-10-13T04:07:07.112Z,101227.58
2022-10-13T04:13:31.412Z,101228.50
2022-10-13T04:19:58.597Z,101235.89
2022-10-13T04:26:22.792Z,101242.02
2022-10-13T04:32:47.077Z,101242.20
2022-10-13T04:39:11.092Z,101245.76
2022-10-13T04:45:35.340Z,101240.39
2022-10-13T04:52:05.592Z,101244.19
2022-10-13T04:58:29.874Z,101247.20
2022-10-13T05:05:00.089Z,101251.05
2022-10-13T05:11:24.410Z,101253.94
2022-10-13T05:17:48.722Z,101251.23
2022-10-13T05:24:15.958Z,101253.63
2022-10-13T05:30:40.250Z,101245.83
2022-10-13T05:37:04.566Z,101245.48
2022-10-13T05:43:23.858Z,101246.61
2022-10-13T05:49:48.173Z,101251.65
2022-10-13T05:56:12.355Z,101251.52
2022-10-13T06:02:36.568Z,101253.64
2022-10-13T06:09:00.886Z,101253.62
2022-10-13T06:15:28.306Z,101257.00
2022-10-13T06:21:53.027Z,101264.84
2022-10-13T06:28:17.551Z,101270.80
2022-10-13T06:34:41.814Z,101273.18
2022-10-13T06:41:06.451Z,101271.96
2022-10-13T06:47:30.873Z,101272.54
2022-10-13T06:53:55.184Z,101278.20
2022-10-13T07:00:19.415Z,101277.45
2022-10-13T07:06:44.088Z,101274.39
2022-10-13T07:13:08.442Z,101271.86
2022-10-13T07:19:32.904Z,101270.77
2022-10-13T07:25:57.313Z,101271.41
2022-10-13T07:32:21.622Z,101265.88
2022-10-13T07:38:46.240Z,101261.72
2022-10-13T07:45:10.458Z,101248.95
2022-10-13T07:51:34.697Z,101245.31
2022-10-13T07:57:58.976Z,101241.71
2022-10-13T08:04:23.185Z,101236.77
2022-10-13T08:10:47.649Z,101228.23
2022-10-13T08:17:11.898Z,101224.38
2022-10-13T08:23:36.155Z,101217.87
2022-10-13T08:30:00.479Z,101212.11
2022-10-13T08:36:24.761Z,101212.06
2022-10-13T08:42:59.483Z,101205.20
2022-10-13T08:49:24.853Z,101199.02
2022-10-13T08:56:01.063Z,101196.36
2022-10-13T09:02:25.342Z,101187.89
2022-10-13T09:08:49.665Z,101185.61
2022-10-13T09:15:16.628Z,101184.55
2022-10-13T09:21:39.082Z,101185.27
2022-10-13T09:28:27.753Z,101189.30
2022-10-13T09:35:00.997Z,101178.48
2022-10-13T09:41:25.326Z,101172.63
2022-10-13T09:47:52.373Z,101168.36
2022-10-13T09:54:16.617Z,101167.27
2022-10-13T10:00:39.339Z,101164.35
2022-10-13T10:07:03.641Z,101156.14
2022-10-13T10:13:27.897Z,101150.96
2022-10-13T10:20:07.260Z,101133.46
2022-10-13T10:26:43.339Z,101124.23
2022-10-13T10:33:15.328Z,101117.98
2022-10-13T10:39:39.630Z,101109.99
2022-10-13T10:46:03.949Z,101100.70
2022-10-13T10:52:28.686Z,101089.20
2022-10-13T10:58:52.993Z,101087.52
2022-10-13T11:05:25.985Z,101073.05
2022-10-13T11:12:05.403Z,101072.73
2022-10-13T11:18:32.618Z,101063.66
2022-10-13T11:25:14.775Z,101054.41
2022-10-13T11:31:48.089Z,101047.30
2022-10-13T11:38:18.082Z,101037.97
2022-10-13T11:44:54.382Z,101032.54
2022-10-13T11:51:21.414Z,101020.88
2022-10-13T11:57:48.470Z,101008.19
2022-10-13T12:04:12.518Z,100996.30
2022-10-13T12:10:40.069Z,100993.95
2022-10-13T12:17:07.255Z,100987.86
2022-10-13T12:23:11.154Z,100982.25
2022-10-13T12:29:53.335Z,100978.61
2022-10-13T12:36:20.366Z,100976.89
2022-10-13T12:42:44.688Z,100964.67
2022-10-13T12:49:09.052Z,100967.46
2022-10-13T12:55:36.363Z,100966.20
2022-10-13T13:02:00.704Z,100958.16
2022-10-13T13:08:34.004Z,100946.89
2022-10-13T13:15:12.370Z,100941.11
2022-10-13T13:21:36.639Z,100935.92
2022-10-13T13:28:01.096Z,100926.92
2022-10-13T13:34:25.451Z,100922.37
2022-10-13T13:40:49.818Z,100923.55
2022-10-13T13:47:14.098Z,100916.55
2022-10-13T13:53:38.301Z,100914.16
2022-10-13T14:00:02.714Z,100920.95
2022-10-13T14:06:27.221Z,100919.85
2022-10-13T14:12:51.489Z,100915.33
2022-10-13T14:19:15.774Z,100913.28
2022-10-13T14:25:40.084Z,100911.52
2022-10-13T14:32:04.385Z,100902.92
2022-10-13T14:38:28.566Z,100903.50
2022-10-13T14:44:55.989Z,100889.64
2022-10-13T14:51:20.297Z,100886.41
2022-10-13T14:57:44.604Z,100889.95
2022-10-13T15:04:08.936Z,100887.91
2022-10-13T15:10:41.638Z,100889.42
2022-10-13T15:17:05.916Z,100877.57
2022-10-13T15:23:30.226Z,100880.73
2022-10-13T15:29:54.523Z,100872.35
2022-10-13T15:36:18.730Z,100871.06
2022-10-13T15:42:42.972Z,100873.23
2022-10-13T15:49:07.292Z,100869.08
2022-10-13T15:55:31.585Z,100868.70
2022-10-13T16:01:55.889Z,100862.92
2022-10-13T16:08:20.113Z,100857.83
2022-10-13T16:14:47.287Z,100852.25
2022-10-13T16:21:17.261Z,100851.00
2022-10-13T16:27:44.490Z,100849.52
2022-10-13T16:34:08.990Z,100852.52
2022-10-13T16:40:33.231Z,100849.01
2022-10-13T16:46:57.492Z,100846.59
2022-10-13T16:53:21.879Z,100850.82
2022-10-13T16:59:46.266Z,100855.01
2022-10-13T17:06:10.591Z,100853.81
2022-10-13T17:12:34.899Z,100853.29
2022-10-13T17:18:59.204Z,100849.34
2022-10-13T17:25:23.398Z,100845.05
2022-10-13T17:31:47.963Z,100839.30
2022-10-13T17:38:12.243Z,100825.98
2022-10-13T17:44:36.549Z,100825.52
2022-10-13T17:51:00.842Z,100822.10
2022-10-13T17:57:25.065Z,100825.59
2022-10-13T18:03:49.267Z,100824.13
2022-10-13T18:10:09.765Z,100824.27
2022-10-13T18:16:37.106Z,100818.56
2022-10-13T18:23:01.391Z,100817.09
2022-10-13T18:29:25.597Z,100818.68
2022-10-13T18:35:50.135Z,100810.61
2022-10-13T18:42:14.400Z,100812.49
2022-10-13T18:48:38.675Z,100810.85
2022-10-13T18:55:03.072Z,100808.80
2022-10-13T19:01:27.394Z,100811.14
2022-10-13T19:07:51.621Z,100807.19
2022-10-13T19:14:15.993Z,100804.80
2022-10-13T19:20:40.193Z,100806.48
2022-10-13T19:27:00.104Z,100801.10
2022-10-13T19:33:25.196Z,100797.11
2022-10-13T19:39:49.445Z,100789.31
2022-10-13T19:46:13.686Z,100784.02
2022-10-13T19:52:38.167Z,100779.61
2022-10-13T19:59:01.318Z,100771.30
2022-10-13T20:05:25.709Z,100768.18
2022-10-13T20:11:50.069Z,100773.49
2022-10-13T20:18:14.357Z,100769.25
2022-10-13T20:24:38.685Z,100774.95
2022-10-13T20:31:04.130Z,100773.28
2022-10-13T20:37:28.431Z,100774.73
2022-10-13T20:43:52.721Z,100772.04
2022-10-13T20:50:16.941Z,100773.23
2022-10-13T20:56:41.270Z,100768.95
2022-10-13T21:03:05.557Z,100762.45
2022-10-13T21:09:29.885Z,100760.60
2022-10-13T21:15:54.196Z,100758.23
2022-10-13T21:22:18.916Z,100760.52
2022-10-13T21:28:43.397Z,100755.23
2022-10-13T21:35:07.854Z,100753.80
2022-10-13T21:41:32.182Z,100746.91
2022-10-13T21:47:56.415Z,100748.08
2022-10-13T21:54:20.884Z,100739.76
2022-10-13T22:00:45.288Z,100736.48
2022-10-13T22:07:09.626Z,100736.62
2022-10-13T22:13:33.898Z,100734.60
2022-10-13T22:19:58.223Z,100730.98
2022-10-13T22:26:25.118Z,100732.33
2022-10-13T22:32:49.420Z,100732.03
2022-10-13T22:39:13.853Z,100724.77
2022-10-13T22:45:38.123Z,100725.07
2022-10-13T22:52:05.296Z,100725.04
2022-10-13T22:58:29.522Z,100728.17
2022-10-13T23:04:53.840Z,100725.78
2022-10-13T23:11:18.162Z,100724.55
2022-10-13T23:17:42.840Z,100718.75
2022-10-13T23:24:07.357Z,100715.45
2022-10-13T23:30:31.550Z,100712.21
2022-10-13T23:36:58.635Z,100716.05
2022-10-13T23:43:23.072Z,100718.27
2022-10-13T23:49:47.382Z,100711.07
2022-10-13T23:56:11.615Z,100705.55
